sensor_id;sensor_type;location;lat;lon;timestamp;P1;durP1;ratioP1;P2;durP2;ratioP2
57752;SDS011;43583;53.132;6.574;2023-08-24T00:01:40;0.77;;;0.40;;
57752;SDS011;43583;53.132;6.574;2023-08-24T00:04:06;0.95;;;0.50;;
57752;SDS011;43583;53.132;6.574;2023-08-24T00:06:32;1.40;;;0.30;;
57752;SDS011;43583;53.132;6.574;2023-08-24T00:08:58;1.77;;;0.55;;
57752;SDS011;43583;53.132;6.574;2023-08-24T00:11:24;1.48;;;0.40;;
57752;SDS011;43583;53.132;6.574;2023-08-24T00:13:50;0.60;;;0.30;;
57752;SDS011;43583;53.132;6.574;2023-08-24T00:16:16;0.60;;;0.20;;
57752;SDS011;43583;53.132;6.574;2023-08-24T00:18:42;0.90;;;0.40;;
57752;SDS011;43583;53.132;6.574;2023-08-24T00:21:08;0.80;;;0.30;;
57752;SDS011;43583;53.132;6.574;2023-08-24T00:23:33;0.50;;;0.20;;
57752;SDS011;43583;53.132;6.574;2023-08-24T00:25:59;0.73;;;0.20;;
57752;SDS011;43583;53.132;6.574;2023-08-24T00:28:28;0.90;;;0.20;;
57752;SDS011;43583;53.132;6.574;2023-08-24T00:30:53;2.58;;;0.40;;
57752;SDS011;43583;53.132;6.574;2023-08-24T00:33:19;0.82;;;0.40;;
57752;SDS011;43583;53.132;6.574;2023-08-24T00:35:44;0.60;;;0.38;;
57752;SDS011;43583;53.132;6.574;2023-08-24T00:38:10;0.50;;;0.30;;
57752;SDS011;43583;53.132;6.574;2023-08-24T00:40:36;1.95;;;0.60;;
57752;SDS011;43583;53.132;6.574;2023-08-24T00:43:03;1.92;;;0.93;;
57752;SDS011;43583;53.132;6.574;2023-08-24T00:45:29;1.42;;;0.60;;
57752;SDS011;43583;53.132;6.574;2023-08-24T00:47:58;1.38;;;0.65;;
57752;SDS011;43583;53.132;6.574;2023-08-24T00:50:24;2.45;;;0.75;;
57752;SDS011;43583;53.132;6.574;2023-08-24T00:52:49;0.90;;;0.30;;
57752;SDS011;43583;53.132;6.574;2023-08-24T00:55:15;0.90;;;0.45;;
57752;SDS011;43583;53.132;6.574;2023-08-24T00:57:41;1.00;;;0.50;;
57752;SDS011;43583;53.132;6.574;2023-08-24T01:00:07;1.63;;;0.40;;
57752;SDS011;43583;53.132;6.574;2023-08-24T01:02:35;1.30;;;0.50;;
57752;SDS011;43583;53.132;6.574;2023-08-24T01:05:02;0.98;;;0.50;;
57752;SDS011;43583;53.132;6.574;2023-08-24T01:07:30;1.95;;;0.50;;
57752;SDS011;43583;53.132;6.574;2023-08-24T01:09:56;2.15;;;0.70;;
57752;SDS011;43583;53.132;6.574;2023-08-24T01:12:28;2.75;;;0.60;;
57752;SDS011;43583;53.132;6.574;2023-08-24T01:17:37;2.78;;;0.85;;
57752;SDS011;43583;53.132;6.574;2023-08-24T01:20:05;2.05;;;0.60;;
57752;SDS011;43583;53.132;6.574;2023-08-24T01:22:41;2.17;;;1.05;;
57752;SDS011;43583;53.132;6.574;2023-08-24T01:27:48;1.48;;;0.82;;
57752;SDS011;43583;53.132;6.574;2023-08-24T01:30:14;3.70;;;1.35;;
57752;SDS011;43583;53.132;6.574;2023-08-24T01:32:42;2.10;;;1.25;;
57752;SDS011;43583;53.132;6.574;2023-08-24T01:35:08;2.30;;;1.25;;
57752;SDS011;43583;53.132;6.574;2023-08-24T01:37:35;2.72;;;1.02;;
57752;SDS011;43583;53.132;6.574;2023-08-24T01:42:56;1.50;;;1.25;;
57752;SDS011;43583;53.132;6.574;2023-08-24T01:45:28;2.75;;;1.30;;
57752;SDS011;43583;53.132;6.574;2023-08-24T01:47:55;2.03;;;1.40;;
57752;SDS011;43583;53.132;6.574;2023-08-24T01:50:22;1.52;;;0.90;;
57752;SDS011;43583;53.132;6.574;2023-08-24T01:52:48;2.88;;;0.90;;
57752;SDS011;43583;53.132;6.574;2023-08-24T01:55:17;4.57;;;1.77;;
57752;SDS011;43583;53.132;6.574;2023-08-24T01:57:43;2.63;;;0.98;;
57752;SDS011;43583;53.132;6.574;2023-08-24T02:00:09;2.10;;;1.05;;
57752;SDS011;43583;53.132;6.574;2023-08-24T02:02:35;2.00;;;0.88;;
57752;SDS011;43583;53.132;6.574;2023-08-24T02:05:01;2.67;;;0.98;;
57752;SDS011;43583;53.132;6.574;2023-08-24T02:07:30;2.45;;;1.05;;
57752;SDS011;43583;53.132;6.574;2023-08-24T02:09:55;1.38;;;0.80;;
57752;SDS011;43583;53.132;6.574;2023-08-24T02:12:21;2.65;;;1.30;;
57752;SDS011;43583;53.132;6.574;2023-08-24T02:14:46;3.38;;;0.80;;
57752;SDS011;43583;53.132;6.574;2023-08-24T02:17:12;3.15;;;0.77;;
57752;SDS011;43583;53.132;6.574;2023-08-24T02:19:39;1.92;;;1.00;;
57752;SDS011;43583;53.132;6.574;2023-08-24T02:22:06;3.50;;;1.65;;
57752;SDS011;43583;53.132;6.574;2023-08-24T02:24:32;1.40;;;1.02;;
57752;SDS011;43583;53.132;6.574;2023-08-24T02:26:57;3.83;;;1.48;;
57752;SDS011;43583;53.132;6.574;2023-08-24T02:29:23;1.42;;;0.75;;
57752;SDS011;43583;53.132;6.574;2023-08-24T02:31:51;3.85;;;1.40;;
57752;SDS011;43583;53.132;6.574;2023-08-24T02:34:17;2.58;;;1.20;;
57752;SDS011;43583;53.132;6.574;2023-08-24T02:36:43;3.92;;;1.73;;
57752;SDS011;43583;53.132;6.574;2023-08-24T02:39:09;2.38;;;1.42;;
57752;SDS011;43583;53.132;6.574;2023-08-24T02:41:35;2.30;;;1.30;;
57752;SDS011;43583;53.132;6.574;2023-08-24T02:44:00;5.13;;;1.77;;
57752;SDS011;43583;53.132;6.574;2023-08-24T02:46:26;2.67;;;1.52;;
57752;SDS011;43583;53.132;6.574;2023-08-24T02:48:52;2.05;;;1.40;;
57752;SDS011;43583;53.132;6.574;2023-08-24T02:51:21;1.80;;;1.05;;
57752;SDS011;43583;53.132;6.574;2023-08-24T02:53:47;2.05;;;1.67;;
57752;SDS011;43583;53.132;6.574;2023-08-24T02:56:13;3.13;;;1.42;;
57752;SDS011;43583;53.132;6.574;2023-08-24T02:58:39;1.90;;;1.33;;
57752;SDS011;43583;53.132;6.574;2023-08-24T03:01:08;3.10;;;1.98;;
57752;SDS011;43583;53.132;6.574;2023-08-24T03:03:34;2.10;;;1.55;;
57752;SDS011;43583;53.132;6.574;2023-08-24T03:06:01;5.07;;;2.90;;
57752;SDS011;43583;53.132;6.574;2023-08-24T03:08:28;5.18;;;2.25;;
57752;SDS011;43583;53.132;6.574;2023-08-24T03:10:55;4.07;;;2.40;;
57752;SDS011;43583;53.132;6.574;2023-08-24T03:13:22;1.95;;;1.60;;
57752;SDS011;43583;53.132;6.574;2023-08-24T03:15:48;3.58;;;2.42;;
57752;SDS011;43583;53.132;6.574;2023-08-24T03:18:15;4.22;;;2.67;;
57752;SDS011;43583;53.132;6.574;2023-08-24T03:20:41;6.25;;;3.03;;
57752;SDS011;43583;53.132;6.574;2023-08-24T03:23:07;5.40;;;3.42;;
57752;SDS011;43583;53.132;6.574;2023-08-24T03:25:36;4.85;;;2.42;;
57752;SDS011;43583;53.132;6.574;2023-08-24T03:28:02;4.13;;;2.47;;
57752;SDS011;43583;53.132;6.574;2023-08-24T03:30:29;6.35;;;2.70;;
57752;SDS011;43583;53.132;6.574;2023-08-24T03:32:54;5.65;;;3.28;;
57752;SDS011;43583;53.132;6.574;2023-08-24T03:35:20;5.65;;;2.88;;
57752;SDS011;43583;53.132;6.574;2023-08-24T03:37:45;4.93;;;2.90;;
57752;SDS011;43583;53.132;6.574;2023-08-24T03:40:11;8.85;;;3.00;;
57752;SDS011;43583;53.132;6.574;2023-08-24T03:42:37;4.45;;;3.15;;
57752;SDS011;43583;53.132;6.574;2023-08-24T03:45:03;4.45;;;2.38;;
57752;SDS011;43583;53.132;6.574;2023-08-24T03:47:29;3.47;;;2.40;;
57752;SDS011;43583;53.132;6.574;2023-08-24T03:49:55;4.15;;;2.95;;
57752;SDS011;43583;53.132;6.574;2023-08-24T03:52:20;4.65;;;2.70;;
57752;SDS011;43583;53.132;6.574;2023-08-24T03:54:46;3.67;;;2.60;;
57752;SDS011;43583;53.132;6.574;2023-08-24T03:57:12;3.30;;;2.55;;
57752;SDS011;43583;53.132;6.574;2023-08-24T03:59:37;4.63;;;2.60;;
57752;SDS011;43583;53.132;6.574;2023-08-24T04:02:03;5.88;;;3.20;;
57752;SDS011;43583;53.132;6.574;2023-08-24T04:04:29;5.03;;;3.20;;
57752;SDS011;43583;53.132;6.574;2023-08-24T04:06:55;6.38;;;2.78;;
57752;SDS011;43583;53.132;6.574;2023-08-24T04:09:21;4.38;;;1.67;;
57752;SDS011;43583;53.132;6.574;2023-08-24T04:11:46;4.40;;;2.15;;
57752;SDS011;43583;53.132;6.574;2023-08-24T04:14:12;5.88;;;2.47;;
57752;SDS011;43583;53.132;6.574;2023-08-24T04:16:38;2.38;;;1.60;;
57752;SDS011;43583;53.132;6.574;2023-08-24T04:19:04;3.83;;;2.70;;
57752;SDS011;43583;53.132;6.574;2023-08-24T04:21:30;4.93;;;2.45;;
57752;SDS011;43583;53.132;6.574;2023-08-24T04:23:56;5.10;;;2.63;;
57752;SDS011;43583;53.132;6.574;2023-08-24T04:26:21;5.05;;;2.60;;
57752;SDS011;43583;53.132;6.574;2023-08-24T04:28:47;5.72;;;3.63;;
57752;SDS011;43583;53.132;6.574;2023-08-24T04:31:12;3.92;;;2.70;;
57752;SDS011;43583;53.132;6.574;2023-08-24T04:33:38;3.33;;;2.25;;
57752;SDS011;43583;53.132;6.574;2023-08-24T04:36:03;5.55;;;2.55;;
57752;SDS011;43583;53.132;6.574;2023-08-24T04:38:29;5.95;;;3.10;;
57752;SDS011;43583;53.132;6.574;2023-08-24T04:40:55;4.95;;;3.28;;
57752;SDS011;43583;53.132;6.574;2023-08-24T04:43:22;5.60;;;3.10;;
57752;SDS011;43583;53.132;6.574;2023-08-24T04:45:48;3.83;;;3.00;;
57752;SDS011;43583;53.132;6.574;2023-08-24T04:48:17;5.93;;;3.00;;
57752;SDS011;43583;53.132;6.574;2023-08-24T04:50:47;4.40;;;2.67;;
57752;SDS011;43583;53.132;6.574;2023-08-24T04:53:14;5.95;;;2.70;;
57752;SDS011;43583;53.132;6.574;2023-08-24T04:55:41;5.55;;;3.47;;
57752;SDS011;43583;53.132;6.574;2023-08-24T04:58:07;6.15;;;2.58;;
57752;SDS011;43583;53.132;6.574;2023-08-24T05:00:33;6.32;;;2.67;;
57752;SDS011;43583;53.132;6.574;2023-08-24T05:03:00;7.70;;;3.63;;
57752;SDS011;43583;53.132;6.574;2023-08-24T05:05:26;3.85;;;2.60;;
57752;SDS011;43583;53.132;6.574;2023-08-24T05:07:54;6.07;;;3.17;;
57752;SDS011;43583;53.132;6.574;2023-08-24T05:10:20;7.10;;;3.60;;
57752;SDS011;43583;53.132;6.574;2023-08-24T05:12:45;6.75;;;2.97;;
57752;SDS011;43583;53.132;6.574;2023-08-24T05:15:11;4.80;;;2.90;;
57752;SDS011;43583;53.132;6.574;2023-08-24T05:17:38;4.75;;;2.10;;
57752;SDS011;43583;53.132;6.574;2023-08-24T05:20:04;4.47;;;2.90;;
57752;SDS011;43583;53.132;6.574;2023-08-24T05:22:31;6.65;;;3.70;;
57752;SDS011;43583;53.132;6.574;2023-08-24T05:24:56;3.80;;;3.13;;
57752;SDS011;43583;53.132;6.574;2023-08-24T05:27:22;3.38;;;2.67;;
57752;SDS011;43583;53.132;6.574;2023-08-24T05:29:47;4.10;;;2.38;;
57752;SDS011;43583;53.132;6.574;2023-08-24T05:32:13;3.72;;;2.42;;
57752;SDS011;43583;53.132;6.574;2023-08-24T05:34:38;4.40;;;2.20;;
57752;SDS011;43583;53.132;6.574;2023-08-24T05:37:04;5.60;;;2.67;;
57752;SDS011;43583;53.132;6.574;2023-08-24T05:39:29;3.53;;;3.22;;
57752;SDS011;43583;53.132;6.574;2023-08-24T05:41:55;5.63;;;3.28;;
57752;SDS011;43583;53.132;6.574;2023-08-24T05:44:20;3.47;;;2.50;;
57752;SDS011;43583;53.132;6.574;2023-08-24T05:46:46;6.75;;;2.75;;
57752;SDS011;43583;53.132;6.574;2023-08-24T05:49:12;5.78;;;3.83;;
57752;SDS011;43583;53.132;6.574;2023-08-24T05:51:38;5.65;;;2.97;;
57752;SDS011;43583;53.132;6.574;2023-08-24T05:54:03;6.15;;;2.60;;
57752;SDS011;43583;53.132;6.574;2023-08-24T05:56:29;4.20;;;2.40;;
57752;SDS011;43583;53.132;6.574;2023-08-24T05:58:55;3.65;;;2.15;;
57752;SDS011;43583;53.132;6.574;2023-08-24T06:01:21;3.03;;;2.10;;
57752;SDS011;43583;53.132;6.574;2023-08-24T06:03:47;3.45;;;2.45;;
57752;SDS011;43583;53.132;6.574;2023-08-24T06:06:14;4.13;;;2.65;;
57752;SDS011;43583;53.132;6.574;2023-08-24T06:08:39;3.67;;;1.05;;
57752;SDS011;43583;53.132;6.574;2023-08-24T06:11:05;3.53;;;1.55;;
57752;SDS011;43583;53.132;6.574;2023-08-24T06:13:30;4.10;;;1.98;;
57752;SDS011;43583;53.132;6.574;2023-08-24T06:15:56;3.40;;;1.63;;
57752;SDS011;43583;53.132;6.574;2023-08-24T06:18:21;3.92;;;1.80;;
57752;SDS011;43583;53.132;6.574;2023-08-24T06:20:47;2.38;;;1.30;;
57752;SDS011;43583;53.132;6.574;2023-08-24T06:23:16;2.58;;;1.08;;
57752;SDS011;43583;53.132;6.574;2023-08-24T06:25:42;4.03;;;1.02;;
57752;SDS011;43583;53.132;6.574;2023-08-24T06:28:08;3.42;;;1.45;;
57752;SDS011;43583;53.132;6.574;2023-08-24T06:30:41;5.00;;;1.10;;
57752;SDS011;43583;53.132;6.574;2023-08-24T06:33:08;3.28;;;0.90;;
57752;SDS011;43583;53.132;6.574;2023-08-24T06:35:35;5.05;;;1.48;;
57752;SDS011;43583;53.132;6.574;2023-08-24T06:38:02;1.77;;;0.60;;
57752;SDS011;43583;53.132;6.574;2023-08-24T06:40:28;1.77;;;0.50;;
57752;SDS011;43583;53.132;6.574;2023-08-24T06:42:54;3.33;;;0.65;;
57752;SDS011;43583;53.132;6.574;2023-08-24T06:45:20;1.52;;;0.40;;
57752;SDS011;43583;53.132;6.574;2023-08-24T06:47:45;2.85;;;0.50;;
57752;SDS011;43583;53.132;6.574;2023-08-24T06:50:11;2.05;;;0.30;;
57752;SDS011;43583;53.132;6.574;2023-08-24T06:52:37;1.63;;;0.20;;
57752;SDS011;43583;53.132;6.574;2023-08-24T06:55:03;1.55;;;0.35;;
57752;SDS011;43583;53.132;6.574;2023-08-24T06:57:30;1.98;;;0.28;;
57752;SDS011;43583;53.132;6.574;2023-08-24T06:59:55;4.15;;;0.68;;
57752;SDS011;43583;53.132;6.574;2023-08-24T07:02:21;1.58;;;0.30;;
57752;SDS011;43583;53.132;6.574;2023-08-24T07:04:47;2.20;;;0.20;;
57752;SDS011;43583;53.132;6.574;2023-08-24T07:07:13;1.60;;;0.30;;
57752;SDS011;43583;53.132;6.574;2023-08-24T07:09:38;1.50;;;0.30;;
57752;SDS011;43583;53.132;6.574;2023-08-24T07:12:04;1.73;;;0.22;;
57752;SDS011;43583;53.132;6.574;2023-08-24T07:14:32;1.33;;;0.25;;
57752;SDS011;43583;53.132;6.574;2023-08-24T07:16:58;4.88;;;0.30;;
57752;SDS011;43583;53.132;6.574;2023-08-24T07:19:24;1.17;;;0.20;;
57752;SDS011;43583;53.132;6.574;2023-08-24T07:21:49;2.65;;;0.20;;
57752;SDS011;43583;53.132;6.574;2023-08-24T07:24:15;1.00;;;0.20;;
57752;SDS011;43583;53.132;6.574;2023-08-24T07:29:19;2.65;;;0.30;;
57752;SDS011;43583;53.132;6.574;2023-08-24T07:31:46;1.95;;;0.40;;
57752;SDS011;43583;53.132;6.574;2023-08-24T07:34:12;1.45;;;0.50;;
57752;SDS011;43583;53.132;6.574;2023-08-24T07:36:37;1.50;;;0.63;;
57752;SDS011;43583;53.132;6.574;2023-08-24T07:39:03;2.08;;;0.60;;
57752;SDS011;43583;53.132;6.574;2023-08-24T07:41:28;2.13;;;0.55;;
57752;SDS011;43583;53.132;6.574;2023-08-24T07:43:54;1.45;;;0.40;;
57752;SDS011;43583;53.132;6.574;2023-08-24T07:46:19;3.95;;;1.17;;
57752;SDS011;43583;53.132;6.574;2023-08-24T07:48:45;2.53;;;0.65;;
57752;SDS011;43583;53.132;6.574;2023-08-24T07:51:11;1.50;;;0.65;;
57752;SDS011;43583;53.132;6.574;2023-08-24T07:53:36;3.50;;;0.80;;
57752;SDS011;43583;53.132;6.574;2023-08-24T07:56:02;2.63;;;0.68;;
57752;SDS011;43583;53.132;6.574;2023-08-24T07:58:28;3.38;;;0.80;;
57752;SDS011;43583;53.132;6.574;2023-08-24T08:00:53;4.25;;;1.10;;
57752;SDS011;43583;53.132;6.574;2023-08-24T08:03:19;1.83;;;0.90;;
57752;SDS011;43583;53.132;6.574;2023-08-24T08:05:46;2.53;;;0.93;;
57752;SDS011;43583;53.132;6.574;2023-08-24T08:08:15;5.45;;;1.20;;
57752;SDS011;43583;53.132;6.574;2023-08-24T08:10:41;5.18;;;0.80;;
57752;SDS011;43583;53.132;6.574;2023-08-24T08:13:07;1.75;;;0.70;;
57752;SDS011;43583;53.132;6.574;2023-08-24T08:15:35;2.53;;;0.52;;
57752;SDS011;43583;53.132;6.574;2023-08-24T08:18:03;1.30;;;0.60;;
57752;SDS011;43583;53.132;6.574;2023-08-24T08:20:29;2.50;;;0.75;;
57752;SDS011;43583;53.132;6.574;2023-08-24T08:22:55;2.45;;;0.85;;
57752;SDS011;43583;53.132;6.574;2023-08-24T08:25:20;2.58;;;0.90;;
57752;SDS011;43583;53.132;6.574;2023-08-24T08:27:47;1.67;;;0.70;;
57752;SDS011;43583;53.132;6.574;2023-08-24T08:30:13;3.42;;;1.10;;
57752;SDS011;43583;53.132;6.574;2023-08-24T08:32:39;3.35;;;0.95;;
57752;SDS011;43583;53.132;6.574;2023-08-24T08:35:05;2.35;;;1.27;;
57752;SDS011;43583;53.132;6.574;2023-08-24T08:37:31;3.28;;;1.27;;
57752;SDS011;43583;53.132;6.574;2023-08-24T08:39:57;4.15;;;1.92;;
57752;SDS011;43583;53.132;6.574;2023-08-24T08:42:23;3.08;;;0.82;;
57752;SDS011;43583;53.132;6.574;2023-08-24T08:44:48;1.98;;;1.00;;
57752;SDS011;43583;53.132;6.574;2023-08-24T08:47:15;3.72;;;0.73;;
57752;SDS011;43583;53.132;6.574;2023-08-24T08:49:44;4.13;;;0.80;;
57752;SDS011;43583;53.132;6.574;2023-08-24T08:52:11;2.38;;;0.93;;
57752;SDS011;43583;53.132;6.574;2023-08-24T08:54:37;2.40;;;1.10;;
57752;SDS011;43583;53.132;6.574;2023-08-24T08:57:02;2.90;;;0.75;;
57752;SDS011;43583;53.132;6.574;2023-08-24T08:59:29;3.15;;;0.90;;
57752;SDS011;43583;53.132;6.574;2023-08-24T09:01:58;4.72;;;1.08;;
57752;SDS011;43583;53.132;6.574;2023-08-24T09:04:29;4.22;;;0.80;;
57752;SDS011;43583;53.132;6.574;2023-08-24T09:06:56;5.82;;;0.63;;
57752;SDS011;43583;53.132;6.574;2023-08-24T09:09:23;4.57;;;1.23;;
57752;SDS011;43583;53.132;6.574;2023-08-24T09:11:50;3.08;;;1.13;;
57752;SDS011;43583;53.132;6.574;2023-08-24T09:14:16;3.55;;;1.33;;
57752;SDS011;43583;53.132;6.574;2023-08-24T09:16:41;4.53;;;1.10;;
57752;SDS011;43583;53.132;6.574;2023-08-24T09:19:10;2.72;;;1.02;;
57752;SDS011;43583;53.132;6.574;2023-08-24T09:21:37;3.38;;;1.33;;
57752;SDS011;43583;53.132;6.574;2023-08-24T09:24:03;2.80;;;0.88;;
57752;SDS011;43583;53.132;6.574;2023-08-24T09:26:30;3.45;;;1.27;;
57752;SDS011;43583;53.132;6.574;2023-08-24T09:28:57;4.30;;;0.80;;
57752;SDS011;43583;53.132;6.574;2023-08-24T09:31:23;5.00;;;1.20;;
57752;SDS011;43583;53.132;6.574;2023-08-24T09:34:01;4.80;;;1.10;;
57752;SDS011;43583;53.132;6.574;2023-08-24T09:36:27;2.25;;;1.25;;
57752;SDS011;43583;53.132;6.574;2023-08-24T09:39:00;4.15;;;1.15;;
57752;SDS011;43583;53.132;6.574;2023-08-24T09:44:05;2.60;;;1.00;;
57752;SDS011;43583;53.132;6.574;2023-08-24T09:46:31;3.35;;;1.23;;
57752;SDS011;43583;53.132;6.574;2023-08-24T09:48:56;3.72;;;1.30;;
57752;SDS011;43583;53.132;6.574;2023-08-24T09:51:26;4.47;;;1.70;;
57752;SDS011;43583;53.132;6.574;2023-08-24T09:53:52;2.58;;;2.10;;
57752;SDS011;43583;53.132;6.574;2023-08-24T09:56:27;3.78;;;1.30;;
57752;SDS011;43583;53.132;6.574;2023-08-24T09:58:53;2.80;;;1.83;;
57752;SDS011;43583;53.132;6.574;2023-08-24T10:01:21;3.97;;;2.90;;
57752;SDS011;43583;53.132;6.574;2023-08-24T10:03:50;2.78;;;1.67;;
57752;SDS011;43583;53.132;6.574;2023-08-24T10:06:21;6.45;;;1.67;;
57752;SDS011;43583;53.132;6.574;2023-08-24T10:08:50;3.83;;;1.65;;
57752;SDS011;43583;53.132;6.574;2023-08-24T10:11:26;5.68;;;2.17;;
57752;SDS011;43583;53.132;6.574;2023-08-24T10:13:57;4.82;;;2.35;;
57752;SDS011;43583;53.132;6.574;2023-08-24T10:16:33;3.67;;;1.75;;
57752;SDS011;43583;53.132;6.574;2023-08-24T10:19:00;2.72;;;1.98;;
57752;SDS011;43583;53.132;6.574;2023-08-24T10:21:28;2.88;;;1.55;;
57752;SDS011;43583;53.132;6.574;2023-08-24T10:23:55;1.90;;;1.20;;
57752;SDS011;43583;53.132;6.574;2023-08-24T10:26:22;3.47;;;1.63;;
57752;SDS011;43583;53.132;6.574;2023-08-24T10:28:49;3.80;;;1.75;;
57752;SDS011;43583;53.132;6.574;2023-08-24T10:31:16;2.75;;;1.70;;
57752;SDS011;43583;53.132;6.574;2023-08-24T10:33:42;4.20;;;1.40;;
57752;SDS011;43583;53.132;6.574;2023-08-24T10:36:10;3.10;;;2.05;;
57752;SDS011;43583;53.132;6.574;2023-08-24T10:38:42;5.38;;;1.75;;
57752;SDS011;43583;53.132;6.574;2023-08-24T10:41:08;4.32;;;1.30;;
57752;SDS011;43583;53.132;6.574;2023-08-24T10:43:37;3.17;;;1.90;;
57752;SDS011;43583;53.132;6.574;2023-08-24T10:46:04;6.93;;;2.33;;
57752;SDS011;43583;53.132;6.574;2023-08-24T10:53:40;7.93;;;2.78;;
57752;SDS011;43583;53.132;6.574;2023-08-24T10:56:10;7.18;;;2.47;;
57752;SDS011;43583;53.132;6.574;2023-08-24T10:58:36;3.25;;;2.28;;
57752;SDS011;43583;53.132;6.574;2023-08-24T11:01:02;5.10;;;2.47;;
57752;SDS011;43583;53.132;6.574;2023-08-24T11:03:31;3.78;;;3.00;;
57752;SDS011;43583;53.132;6.574;2023-08-24T11:05:58;3.53;;;2.20;;
57752;SDS011;43583;53.132;6.574;2023-08-24T11:08:43;5.30;;;2.40;;
57752;SDS011;43583;53.132;6.574;2023-08-24T11:11:18;4.82;;;2.72;;
57752;SDS011;43583;53.132;6.574;2023-08-24T11:16:39;7.03;;;2.75;;
57752;SDS011;43583;53.132;6.574;2023-08-24T11:19:08;3.88;;;2.55;;
57752;SDS011;43583;53.132;6.574;2023-08-24T11:21:37;3.47;;;2.80;;
57752;SDS011;43583;53.132;6.574;2023-08-24T11:24:04;5.30;;;2.63;;
57752;SDS011;43583;53.132;6.574;2023-08-24T11:26:30;3.60;;;2.22;;
57752;SDS011;43583;53.132;6.574;2023-08-24T11:28:56;5.78;;;2.80;;
57752;SDS011;43583;53.132;6.574;2023-08-24T11:31:25;4.70;;;2.90;;
57752;SDS011;43583;53.132;6.574;2023-08-24T11:33:54;4.45;;;3.00;;
57752;SDS011;43583;53.132;6.574;2023-08-24T11:36:20;7.30;;;2.60;;
57752;SDS011;43583;53.132;6.574;2023-08-24T11:38:48;3.05;;;2.42;;
57752;SDS011;43583;53.132;6.574;2023-08-24T11:41:17;4.53;;;2.45;;
57752;SDS011;43583;53.132;6.574;2023-08-24T11:43:45;3.47;;;3.00;;
57752;SDS011;43583;53.132;6.574;2023-08-24T11:46:12;5.10;;;3.75;;
57752;SDS011;43583;53.132;6.574;2023-08-24T11:48:40;4.85;;;2.88;;
57752;SDS011;43583;53.132;6.574;2023-08-24T11:51:12;4.55;;;2.97;;
57752;SDS011;43583;53.132;6.574;2023-08-24T11:53:42;5.05;;;2.85;;
57752;SDS011;43583;53.132;6.574;2023-08-24T11:56:09;3.97;;;2.88;;
57752;SDS011;43583;53.132;6.574;2023-08-24T11:58:38;4.50;;;2.88;;
57752;SDS011;43583;53.132;6.574;2023-08-24T12:01:05;5.00;;;3.30;;
57752;SDS011;43583;53.132;6.574;2023-08-24T12:03:31;5.80;;;3.30;;
57752;SDS011;43583;53.132;6.574;2023-08-24T12:06:00;4.38;;;3.50;;
57752;SDS011;43583;53.132;6.574;2023-08-24T12:08:28;5.75;;;3.38;;
57752;SDS011;43583;53.132;6.574;2023-08-24T12:10:54;7.07;;;3.58;;
57752;SDS011;43583;53.132;6.574;2023-08-24T12:13:20;3.25;;;2.92;;
57752;SDS011;43583;53.132;6.574;2023-08-24T12:15:47;4.50;;;3.05;;
57752;SDS011;43583;53.132;6.574;2023-08-24T12:18:15;6.55;;;3.30;;
57752;SDS011;43583;53.132;6.574;2023-08-24T12:20:41;4.97;;;3.45;;
57752;SDS011;43583;53.132;6.574;2023-08-24T12:23:07;6.65;;;3.40;;
57752;SDS011;43583;53.132;6.574;2023-08-24T12:25:37;5.25;;;3.55;;
57752;SDS011;43583;53.132;6.574;2023-08-24T12:28:08;4.70;;;3.05;;
57752;SDS011;43583;53.132;6.574;2023-08-24T12:30:45;7.07;;;3.97;;
57752;SDS011;43583;53.132;6.574;2023-08-24T12:33:25;5.32;;;3.58;;
57752;SDS011;43583;53.132;6.574;2023-08-24T12:35:53;4.15;;;3.53;;
57752;SDS011;43583;53.132;6.574;2023-08-24T12:38:20;6.05;;;4.20;;
57752;SDS011;43583;53.132;6.574;2023-08-24T12:40:50;8.10;;;3.45;;
57752;SDS011;43583;53.132;6.574;2023-08-24T12:43:16;5.32;;;3.08;;
57752;SDS011;43583;53.132;6.574;2023-08-24T12:45:42;5.57;;;3.60;;
57752;SDS011;43583;53.132;6.574;2023-08-24T12:48:08;4.97;;;3.08;;
57752;SDS011;43583;53.132;6.574;2023-08-24T12:50:36;5.03;;;3.47;;
57752;SDS011;43583;53.132;6.574;2023-08-24T12:53:03;6.22;;;3.05;;
57752;SDS011;43583;53.132;6.574;2023-08-24T12:55:31;5.85;;;3.58;;
57752;SDS011;43583;53.132;6.574;2023-08-24T12:58:00;4.47;;;3.30;;
57752;SDS011;43583;53.132;6.574;2023-08-24T13:00:26;5.03;;;3.17;;
57752;SDS011;43583;53.132;6.574;2023-08-24T13:02:52;3.60;;;3.10;;
57752;SDS011;43583;53.132;6.574;2023-08-24T13:05:18;4.40;;;3.50;;
57752;SDS011;43583;53.132;6.574;2023-08-24T13:07:43;5.72;;;3.60;;
57752;SDS011;43583;53.132;6.574;2023-08-24T13:10:09;5.00;;;3.45;;
57752;SDS011;43583;53.132;6.574;2023-08-24T13:12:35;5.97;;;3.40;;
57752;SDS011;43583;53.132;6.574;2023-08-24T13:15:01;3.33;;;3.03;;
57752;SDS011;43583;53.132;6.574;2023-08-24T13:17:27;7.60;;;4.80;;
57752;SDS011;43583;53.132;6.574;2023-08-24T13:19:54;3.53;;;3.00;;
57752;SDS011;43583;53.132;6.574;2023-08-24T13:22:20;6.78;;;4.40;;
57752;SDS011;43583;53.132;6.574;2023-08-24T13:24:45;6.10;;;4.72;;
57752;SDS011;43583;53.132;6.574;2023-08-24T13:27:11;4.68;;;4.20;;
57752;SDS011;43583;53.132;6.574;2023-08-24T13:29:37;3.95;;;3.40;;
57752;SDS011;43583;53.132;6.574;2023-08-24T13:32:02;4.13;;;3.72;;
57752;SDS011;43583;53.132;6.574;2023-08-24T13:34:29;5.32;;;3.70;;
57752;SDS011;43583;53.132;6.574;2023-08-24T13:36:56;2.97;;;2.67;;
57752;SDS011;43583;53.132;6.574;2023-08-24T13:39:22;6.95;;;3.58;;
57752;SDS011;43583;53.132;6.574;2023-08-24T13:41:48;5.93;;;3.65;;
57752;SDS011;43583;53.132;6.574;2023-08-24T13:44:13;4.85;;;3.63;;
57752;SDS011;43583;53.132;6.574;2023-08-24T13:46:39;4.15;;;3.33;;
57752;SDS011;43583;53.132;6.574;2023-08-24T13:49:04;5.80;;;4.03;;
57752;SDS011;43583;53.132;6.574;2023-08-24T13:51:30;5.35;;;4.50;;
57752;SDS011;43583;53.132;6.574;2023-08-24T13:53:55;7.90;;;4.18;;
57752;SDS011;43583;53.132;6.574;2023-08-24T13:56:21;5.95;;;4.30;;
57752;SDS011;43583;53.132;6.574;2023-08-24T13:58:47;8.13;;;3.45;;
57752;SDS011;43583;53.132;6.574;2023-08-24T14:01:13;6.75;;;3.97;;
57752;SDS011;43583;53.132;6.574;2023-08-24T14:03:39;8.68;;;4.22;;
57752;SDS011;43583;53.132;6.574;2023-08-24T14:06:08;4.80;;;3.97;;
57752;SDS011;43583;53.132;6.574;2023-08-24T14:08:33;5.65;;;4.00;;
57752;SDS011;43583;53.132;6.574;2023-08-24T14:10:59;5.45;;;4.03;;
57752;SDS011;43583;53.132;6.574;2023-08-24T14:13:25;4.50;;;3.47;;
57752;SDS011;43583;53.132;6.574;2023-08-24T14:15:50;4.43;;;3.35;;
57752;SDS011;43583;53.132;6.574;2023-08-24T14:18:16;8.10;;;3.78;;
57752;SDS011;43583;53.132;6.574;2023-08-24T14:20:42;4.88;;;3.05;;
57752;SDS011;43583;53.132;6.574;2023-08-24T14:23:08;7.38;;;3.70;;
57752;SDS011;43583;53.132;6.574;2023-08-24T14:25:34;4.75;;;2.55;;
57752;SDS011;43583;53.132;6.574;2023-08-24T14:27:59;5.18;;;3.35;;
57752;SDS011;43583;53.132;6.574;2023-08-24T14:30:25;2.88;;;2.55;;
57752;SDS011;43583;53.132;6.574;2023-08-24T14:32:51;5.13;;;3.35;;
57752;SDS011;43583;53.132;6.574;2023-08-24T14:35:17;4.07;;;2.85;;
57752;SDS011;43583;53.132;6.574;2023-08-24T14:37:42;7.85;;;3.60;;
57752;SDS011;43583;53.132;6.574;2023-08-24T14:40:08;4.03;;;2.90;;
57752;SDS011;43583;53.132;6.574;2023-08-24T14:42:35;3.47;;;3.17;;
57752;SDS011;43583;53.132;6.574;2023-08-24T14:45:01;3.70;;;2.55;;
57752;SDS011;43583;53.132;6.574;2023-08-24T14:47:27;3.80;;;2.63;;
57752;SDS011;43583;53.132;6.574;2023-08-24T15:06:03;5.50;;;3.35;;
57752;SDS011;43583;53.132;6.574;2023-08-24T15:08:34;3.23;;;2.80;;
57752;SDS011;43583;53.132;6.574;2023-08-24T15:11:01;4.57;;;3.00;;
57752;SDS011;43583;53.132;6.574;2023-08-24T15:13:27;4.80;;;3.72;;
57752;SDS011;43583;53.132;6.574;2023-08-24T15:15:54;4.07;;;3.08;;
57752;SDS011;43583;53.132;6.574;2023-08-24T15:18:22;3.40;;;2.55;;
57752;SDS011;43583;53.132;6.574;2023-08-24T15:20:48;7.03;;;3.33;;
57752;SDS011;43583;53.132;6.574;2023-08-24T15:23:20;5.75;;;4.10;;